Springport, Michigan
Current Conditions -  °F | °C
As of 2:14 AM on Friday 28 Nov 2014 (Local Time) from KFPK Reporting Station
Clear Clear  
Wind Chill: 17°   Ceiling: Unl
Heat Index: 17°   Visibility: 10mi
Dew Point:   Wind: 0mph
Humidity: 71%   Direction: NA
Pressure: 30.32"   Gusts: NA
Location:  42.38°N, 84.7°W
Report Text: KFPK 280714Z AUTO 00000KT 10SM CLR M08/M13 A3032 RMK AO2 T10831128
Loading
Personal Weather Stations






























Interactive Weather Map New forecast layout! Learn more

10-Day Weather Forecast

Advertisements
Track Severe Weather on mobile